Time,TemperatureF,DewpointF,PressureIn,WindDirection,WindDirectionDegrees,WindSpeedMPH,WindSpeedGustMPH,Humidity,HourlyPrecipIn,Conditions,Clouds,dailyrainin,SoftwareType,DateUTC
2013-08-18 00:01:00,60.1,35.1,29.72,NNE,30,0.0,0.0,39,0.00,,---,0.00,VWS V13.01,2013-08-18 07:01:00,
2013-08-18 00:06:00,60.1,34.4,29.72,NNE,30,0.0,0.0,38,0.00,,---,0.00,VWS V13.01,2013-08-18 07:06:00,
2013-08-18 00:11:00,59.9,34.9,29.72,NNE,30,0.0,0.0,39,0.00,,---,0.00,VWS V13.01,2013-08-18 07:11:00,
2013-08-18 00:16:00,59.9,34.9,29.71,NNE,30,0.0,0.0,39,0.00,,---,0.00,VWS V13.01,2013-08-18 07:16:00,
2013-08-18 00:21:00,59.9,35.5,29.71,NNE,30,0.0,1.0,40,0.00,,---,0.00,VWS V13.01,2013-08-18 07:21:00,
2013-08-18 00:26:00,59.8,35.5,29.71,NNE,30,0.0,0.0,40,0.00,,---,0.00,VWS V13.01,2013-08-18 07:26:00,
2013-08-18 00:31:00,59.6,35.3,29.71,NNE,30,0.0,0.0,40,0.00,,---,0.00,VWS V13.01,2013-08-18 07:31:00,
2013-08-18 00:36:00,59.6,35.3,29.71,NNE,30,0.0,0.0,40,0.00,,---,0.00,VWS V13.01,2013-08-18 07:36:00,
2013-08-18 00:40:00,72.0,48.9,29.80,WSW,248,0.0,3.0,44,0.00,,---,0.00,VWS V13.01,2013-08-18 07:40:00,
2013-08-18 00:41:00,59.5,35.2,29.71,NNE,30,0.0,0.0,40,0.00,,---,0.00,VWS V13.01,2013-08-18 07:41:00,
2013-08-18 00:46:00,59.3,35.0,29.72,NNE,30,0.0,0.0,40,0.00,,---,0.00,VWS V13.01,2013-08-18 07:46:00,
2013-08-18 00:51:00,59.2,34.9,29.72,NNE,30,0.0,0.0,40,0.00,,---,0.00,VWS V13.01,2013-08-18 07:51:00,
2013-08-18 00:56:00,59.0,34.7,29.72,NE,40,0.0,0.0,40,0.00,,---,0.00,VWS V13.01,2013-08-18 07:56:00,
2013-08-18 01:01:00,58.9,34.6,29.72,NE,40,0.0,0.0,40,0.00,,---,0.00,VWS V13.01,2013-08-18 08:01:00,
2013-08-18 01:06:00,58.6,34.4,29.72,NE,40,0.0,0.0,40,0.00,,---,0.00,VWS V13.01,2013-08-18 08:06:00,
2013-08-18 01:11:00,58.4,34.8,29.72,NE,40,0.0,0.0,41,0.00,,---,0.00,VWS V13.01,2013-08-18 08:11:00,
2013-08-18 01:16:00,58.3,34.7,29.71,NE,40,0.0,0.0,41,0.00,,---,0.00,VWS V13.01,2013-08-18 08:16:00,
2013-08-18 01:21:00,58.3,35.3,29.71,NE,40,0.0,0.0,42,0.00,,---,0.00,VWS V13.01,2013-08-18 08:21:00,
2013-08-18 01:26:00,58.0,35.1,29.71,NE,40,0.0,0.0,42,0.00,,---,0.00,VWS V13.01,2013-08-18 08:26:00,
2013-08-18 01:31:00,57.8,34.9,29.71,NE,40,0.0,0.0,42,0.00,,---,0.00,VWS V13.01,2013-08-18 08:31:00,
2013-08-18 01:36:00,57.6,34.7,29.71,NE,40,0.0,0.0,42,0.00,,---,0.00,VWS V13.01,2013-08-18 08:36:00,
2013-08-18 01:41:00,57.3,34.4,29.71,NE,41,0.0,0.0,42,0.00,,---,0.00,VWS V13.01,2013-08-18 08:41:00,
2013-08-18 01:46:00,57.2,34.3,29.71,NE,41,0.0,0.0,42,0.00,,---,0.00,VWS V13.01,2013-08-18 08:46:00,
2013-08-18 01:51:00,57.0,34.2,29.71,NE,41,0.0,0.0,42,0.00,,---,0.00,VWS V13.01,2013-08-18 08:51:00,
2013-08-18 01:56:00,56.9,34.7,29.71,NE,41,0.0,0.0,43,0.00,,---,0.00,VWS V13.01,2013-08-18 08:56:00,
2013-08-18 02:01:00,56.7,34.5,29.70,NE,41,0.0,0.0,43,0.00,,---,0.00,VWS V13.01,2013-08-18 09:01:00,
2013-08-18 02:06:00,56.6,34.4,29.70,NE,41,0.0,0.0,43,0.00,,---,0.00,VWS V13.01,2013-08-18 09:06:00,
2013-08-18 02:11:00,56.5,34.3,29.70,NE,41,0.0,0.0,43,0.00,,---,0.00,VWS V13.01,2013-08-18 09:11:00,
2013-08-18 02:16:00,56.3,34.1,29.71,NE,41,0.0,0.0,43,0.00,,---,0.00,VWS V13.01,2013-08-18 09:16:00,
2013-08-18 02:21:00,56.2,34.6,29.71,NE,41,0.0,0.0,44,0.00,,---,0.00,VWS V13.01,2013-08-18 09:21:00,
2013-08-18 02:26:00,56.0,34.4,29.71,NE,41,0.0,0.0,44,0.00,,---,0.00,VWS V13.01,2013-08-18 09:26:00,
2013-08-18 02:31:00,55.9,34.3,29.71,NE,41,0.0,0.0,44,0.00,,---,0.00,VWS V13.01,2013-08-18 09:31:00,
2013-08-18 02:36:00,55.7,34.7,29.71,NE,41,0.0,0.0,45,0.00,,---,0.00,VWS V13.01,2013-08-18 09:36:00,
2013-08-18 02:41:00,55.4,34.4,29.71,NE,41,0.0,0.0,45,0.00,,---,0.00,VWS V13.01,2013-08-18 09:41:00,
2013-08-18 02:46:00,55.3,34.3,29.71,NE,42,0.0,0.0,45,0.00,,---,0.00,VWS V13.01,2013-08-18 09:46:00,
2013-08-18 02:51:00,55.1,34.2,29.71,NE,41,0.0,0.0,45,0.00,,---,0.00,VWS V13.01,2013-08-18 09:51:00,
2013-08-18 02:56:00,55.1,34.7,29.71,NE,42,0.0,0.0,46,0.00,,---,0.00,VWS V13.01,2013-08-18 09:56:00,
2013-08-18 03:01:00,55.0,34.6,29.71,NE,42,0.0,0.0,46,0.00,,---,0.00,VWS V13.01,2013-08-18 10:01:00,
2013-08-18 03:06:00,54.8,34.4,29.71,NE,41,0.0,0.0,46,0.00,,---,0.00,VWS V13.01,2013-08-18 10:06:00,
2013-08-18 03:11:00,54.7,34.3,29.71,NE,42,0.0,0.0,46,0.00,,---,0.00,VWS V13.01,2013-08-18 10:11:00,
2013-08-18 03:16:00,54.7,34.9,29.72,NE,42,0.0,0.0,47,0.00,,---,0.00,VWS V13.01,2013-08-18 10:16:00,
2013-08-18 03:21:00,54.5,34.7,29.72,NE,41,0.0,0.0,47,0.00,,---,0.00,VWS V13.01,2013-08-18 10:21:00,
2013-08-18 03:26:00,54.4,34.6,29.72,NE,41,0.0,0.0,47,0.00,,---,0.00,VWS V13.01,2013-08-18 10:26:00,
2013-08-18 03:31:00,54.4,34.6,29.72,NE,41,0.0,0.0,47,0.00,,---,0.00,VWS V13.01,2013-08-18 10:31:00,
2013-08-18 03:36:00,54.2,35.0,29.72,NE,41,0.0,0.0,48,0.00,,---,0.00,VWS V13.01,2013-08-18 10:36:00,
2013-08-18 03:41:00,54.2,35.5,29.72,NE,42,0.0,0.0,49,0.00,,---,0.00,VWS V13.01,2013-08-18 10:41:00,
2013-08-18 03:46:00,54.1,35.4,29.73,NE,41,0.0,0.0,49,0.00,,---,0.00,VWS V13.01,2013-08-18 10:46:00,
2013-08-18 03:51:00,54.1,35.4,29.73,NE,41,0.0,0.0,49,0.00,,---,0.00,VWS V13.01,2013-08-18 10:51:00,
2013-08-18 03:56:00,53.9,35.2,29.73,NE,42,0.0,0.0,49,0.00,,---,0.00,VWS V13.01,2013-08-18 10:56:00,
2013-08-18 04:01:00,53.9,35.2,29.73,NE,42,0.0,0.0,49,0.00,,---,0.00,VWS V13.01,2013-08-18 11:01:00,
2013-08-18 04:06:00,53.8,35.6,29.73,NE,42,0.0,0.0,50,0.00,,---,0.00,VWS V13.01,2013-08-18 11:06:00,
2013-08-18 04:11:00,53.8,35.6,29.73,NE,42,0.0,0.0,50,0.00,,---,0.00,VWS V13.01,2013-08-18 11:11:00,
2013-08-18 04:16:00,53.6,35.4,29.73,NE,41,0.0,0.0,50,0.00,,---,0.00,VWS V13.01,2013-08-18 11:16:00,
2013-08-18 04:21:00,53.5,35.3,29.73,NE,41,0.0,0.0,50,0.00,,---,0.00,VWS V13.01,2013-08-18 11:21:00,
2013-08-18 04:26:00,53.5,35.8,29.73,NE,42,0.0,0.0,51,0.00,,---,0.00,VWS V13.01,2013-08-18 11:26:00,
2013-08-18 04:31:00,53.3,35.7,29.74,NE,42,0.0,0.0,51,0.00,,---,0.00,VWS V13.01,2013-08-18 11:31:00,
2013-08-18 04:36:00,53.3,35.7,29.74,NE,42,0.0,0.0,51,0.00,,---,0.00,VWS V13.01,2013-08-18 11:36:00,
2013-08-18 04:41:00,53.2,35.6,29.74,NE,42,0.0,0.0,51,0.00,,---,0.00,VWS V13.01,2013-08-18 11:41:00,
2013-08-18 04:46:00,53.1,35.5,29.74,NE,42,0.0,0.0,51,0.00,,---,0.00,VWS V13.01,2013-08-18 11:46:00,
2013-08-18 04:51:00,52.9,35.3,29.74,NE,42,0.0,0.0,51,0.00,,---,0.00,VWS V13.01,2013-08-18 11:51:00,
2013-08-18 04:56:00,52.8,35.2,29.74,NE,42,0.0,0.0,51,0.00,,---,0.00,VWS V13.01,2013-08-18 11:56:00,
2013-08-18 05:01:00,52.8,34.7,29.74,NE,45,0.0,0.0,50,0.00,,---,0.00,VWS V13.01,2013-08-18 12:01:00,
2013-08-18 05:06:00,52.6,35.0,29.74,NE,44,0.0,0.0,51,0.00,,---,0.00,VWS V13.01,2013-08-18 12:06:00,
2013-08-18 05:11:00,52.5,34.9,29.74,NE,45,0.0,0.0,51,0.00,,---,0.00,VWS V13.01,2013-08-18 12:11:00,
2013-08-18 05:16:00,52.3,34.7,29.75,NE,45,0.0,0.0,51,0.00,,---,0.00,VWS V13.01,2013-08-18 12:16:00,
2013-08-18 05:21:00,52.2,34.6,29.75,NE,45,0.0,0.0,51,0.00,,---,0.00,VWS V13.01,2013-08-18 12:21:00,
2013-08-18 05:26:00,52.0,34.9,29.75,NE,45,0.0,0.0,52,0.00,,---,0.00,VWS V13.01,2013-08-18 12:26:00,
2013-08-18 05:31:00,51.9,34.8,29.76,NE,45,0.0,0.0,52,0.00,,---,0.00,VWS V13.01,2013-08-18 12:31:00,
2013-08-18 05:36:00,51.7,35.1,29.76,NE,45,0.0,0.0,53,0.00,,---,0.00,VWS V13.01,2013-08-18 12:36:00,
2013-08-18 05:41:00,51.7,35.1,29.76,NE,45,0.0,0.0,53,0.00,,---,0.00,VWS V13.01,2013-08-18 12:41:00,
2013-08-18 05:46:00,51.6,35.0,29.76,NE,44,0.0,0.0,53,0.00,,---,0.00,VWS V13.01,2013-08-18 12:46:00,
2013-08-18 05:51:00,51.4,34.9,29.76,NE,45,0.0,0.0,53,0.00,,---,0.00,VWS V13.01,2013-08-18 12:51:00,
2013-08-18 05:56:00,51.3,34.8,29.76,NE,45,0.0,0.0,53,0.00,,---,0.00,VWS V13.01,2013-08-18 12:56:00,
2013-08-18 06:01:00,51.1,35.0,29.76,NE,47,0.0,0.0,54,0.00,,---,0.00,VWS V13.01,2013-08-18 13:01:00,
2013-08-18 06:06:00,51.0,35.0,29.76,NE,47,0.0,0.0,54,0.00,,---,0.00,VWS V13.01,2013-08-18 13:06:00,
2013-08-18 06:10:00,50.8,34.8,29.76,NE,47,0.0,0.0,54,0.00,,---,0.00,VWS V13.01,2013-08-18 13:10:00,
2013-08-18 06:16:00,50.7,34.7,29.78,NE,47,0.0,0.0,54,0.00,,---,0.00,VWS V13.01,2013-08-18 13:16:00,
2013-08-18 06:21:00,50.7,35.1,29.78,NE,48,0.0,0.0,55,0.00,,---,0.00,VWS V13.01,2013-08-18 13:21:00,
2013-08-18 06:26:00,50.5,35.4,29.78,NE,49,0.0,0.0,56,0.00,,---,0.00,VWS V13.01,2013-08-18 13:26:00,
2013-08-18 06:30:00,50.4,35.3,29.79,NE,49,0.0,0.0,56,0.00,,---,0.00,VWS V13.01,2013-08-18 13:30:00,
2013-08-18 06:35:00,50.4,35.3,29.79,NE,52,0.0,0.0,56,0.00,,---,0.00,VWS V13.01,2013-08-18 13:35:00,
2013-08-18 06:40:00,50.2,35.1,29.79,NE,49,0.0,0.0,56,0.00,,---,0.00,VWS V13.01,2013-08-18 13:40:00,
2013-08-18 06:45:00,50.1,35.0,29.79,NE,45,0.0,0.0,56,0.00,,---,0.00,VWS V13.01,2013-08-18 13:45:00,
2013-08-18 06:50:00,50.1,35.5,29.79,NE,51,0.0,0.0,57,0.00,,---,0.00,VWS V13.01,2013-08-18 13:50:00,
2013-08-18 06:55:00,50.1,35.5,29.79,NE,52,0.0,0.0,57,0.00,,---,0.00,VWS V13.01,2013-08-18 13:55:00,
2013-08-18 07:00:00,49.9,35.3,29.80,NE,47,0.0,0.0,57,0.00,,---,0.00,VWS V13.01,2013-08-18 14:00:00,
2013-08-18 07:05:00,49.9,35.7,29.80,NE,51,0.0,0.0,58,0.00,,---,0.00,VWS V13.01,2013-08-18 14:05:00,
2013-08-18 07:10:00,49.9,35.3,29.80,NE,49,0.0,0.0,57,0.00,,---,0.00,VWS V13.01,2013-08-18 14:10:00,
2013-08-18 07:15:00,49.9,36.2,29.83,NE,51,0.0,0.0,59,0.00,,---,0.00,VWS V13.01,2013-08-18 14:15:00,
2013-08-18 07:20:00,49.9,37.0,29.83,NE,51,0.0,0.0,61,0.00,,---,0.00,VWS V13.01,2013-08-18 14:20:00,
2013-08-18 07:25:00,49.9,36.6,29.83,NE,51,0.0,0.0,60,0.00,,---,0.00,VWS V13.01,2013-08-18 14:25:00,
2013-08-18 07:30:00,49.9,36.6,29.83,NE,51,0.0,0.0,60,0.00,,---,0.00,VWS V13.01,2013-08-18 14:30:00,
2013-08-18 07:35:00,49.9,37.0,29.83,NE,52,0.0,0.0,61,0.00,,---,0.00,VWS V13.01,2013-08-18 14:35:00,
2013-08-18 07:40:00,50.1,37.6,29.83,NE,54,0.0,0.0,62,0.00,,---,0.00,VWS V13.01,2013-08-18 14:40:00,
2013-08-18 07:45:00,50.2,38.1,29.83,NE,54,0.0,0.0,63,0.00,,---,0.00,VWS V13.01,2013-08-18 14:45:00,
2013-08-18 07:50:00,50.4,38.3,29.83,NE,51,0.0,0.0,63,0.00,,---,0.00,VWS V13.01,2013-08-18 14:50:00,
2013-08-18 07:55:00,50.5,38.8,29.83,NE,52,0.0,0.0,64,0.00,,---,0.00,VWS V13.01,2013-08-18 14:55:00,
2013-08-18 08:00:00,50.8,39.5,29.83,NE,49,0.0,0.0,65,0.00,,---,0.00,VWS V13.01,2013-08-18 15:00:00,
2013-08-18 08:05:00,51.1,39.4,29.83,NNE,23,0.0,0.0,64,0.00,,---,0.00,VWS V13.01,2013-08-18 15:05:00,
2013-08-18 08:10:00,51.4,39.7,29.83,NNE,24,0.0,1.0,64,0.00,,---,0.00,VWS V13.01,2013-08-18 15:10:00,
2013-08-18 08:15:00,51.9,40.1,29.86,NNE,23,0.0,0.0,64,0.00,,---,0.00,VWS V13.01,2013-08-18 15:15:00,
2013-08-18 08:20:00,52.3,39.7,29.86,NNE,23,0.0,0.0,62,0.00,,---,0.00,VWS V13.01,2013-08-18 15:20:00,
2013-08-18 08:25:00,52.8,39.3,29.86,NNE,23,0.0,0.0,60,0.00,,---,0.00,VWS V13.01,2013-08-18 15:25:00,
2013-08-18 08:30:00,53.5,38.2,29.85,NNE,21,0.0,0.0,56,0.00,,---,0.00,VWS V13.01,2013-08-18 15:30:00,
2013-08-18 08:35:00,54.4,39.0,29.85,North,0,0.0,1.0,56,0.00,,---,0.00,VWS V13.01,2013-08-18 15:35:00,
2013-08-18 08:40:00,55.4,39.0,29.85,North,3,0.0,2.0,54,0.00,,---,0.00,VWS V13.01,2013-08-18 15:40:00,
2013-08-18 08:45:00,56.5,38.6,29.84,North,3,0.0,1.0,51,0.00,,---,0.00,VWS V13.01,2013-08-18 15:45:00,
2013-08-18 08:50:00,57.6,38.6,29.84,North,3,0.0,1.0,49,0.00,,---,0.00,VWS V13.01,2013-08-18 15:50:00,
2013-08-18 08:55:00,58.7,39.6,29.84,NNE,25,0.0,1.0,49,0.00,,---,0.00,VWS V13.01,2013-08-18 15:55:00,
2013-08-18 09:00:00,59.6,39.9,29.83,North,0,0.0,1.0,48,0.00,,---,0.00,VWS V13.01,2013-08-18 16:00:00,
2013-08-18 09:05:00,60.7,39.3,29.83,NNW,339,0.0,2.0,45,0.00,,---,0.00,VWS V13.01,2013-08-18 16:05:00,
2013-08-18 09:10:00,61.6,40.1,29.83,North,356,0.0,2.0,45,0.00,,---,0.00,VWS V13.01,2013-08-18 16:10:00,
2013-08-18 09:15:00,62.4,40.2,29.84,NE,45,0.0,1.0,44,0.00,,---,0.00,VWS V13.01,2013-08-18 16:15:00,
2013-08-18 09:20:00,63.2,40.3,29.84,North,8,0.0,2.0,43,0.00,,---,0.00,VWS V13.01,2013-08-18 16:20:00,
2013-08-18 09:25:00,64.3,41.3,29.84,NNE,14,0.0,3.0,43,0.00,,---,0.00,VWS V13.01,2013-08-18 16:25:00,
2013-08-18 09:30:00,65.3,40.4,29.83,North,1,0.0,3.0,40,0.00,,---,0.00,VWS V13.01,2013-08-18 16:30:00,
2013-08-18 09:35:00,66.1,40.5,29.83,NNE,18,0.0,1.0,39,0.00,,---,0.00,VWS V13.01,2013-08-18 16:35:00,
2013-08-18 09:40:00,66.9,40.5,29.83,North,4,0.0,2.0,38,0.00,,---,0.00,VWS V13.01,2013-08-18 16:40:00,
2013-08-18 09:45:00,67.6,39.7,29.81,North,4,0.0,1.0,36,0.00,,---,0.00,VWS V13.01,2013-08-18 16:45:00,
2013-08-18 09:50:00,68.4,39.7,29.81,NNE,30,0.0,5.0,35,0.00,,---,0.00,VWS V13.01,2013-08-18 16:50:00,
2013-08-18 09:55:00,71.1,41.3,29.81,NNE,30,1.0,1.0,34,0.00,,---,0.00,VWS V13.01,2013-08-18 16:55:00,
2013-08-18 10:00:00,73.2,40.8,29.78,NNE,20,0.0,1.0,31,0.00,,---,0.00,VWS V13.01,2013-08-18 17:00:00,
2013-08-18 10:05:00,74.4,40.1,29.78,NE,44,0.0,1.0,29,0.00,,---,0.00,VWS V13.01,2013-08-18 17:05:00,
2013-08-18 10:10:00,75.6,39.3,29.78,NE,47,0.0,1.0,27,0.00,,---,0.00,VWS V13.01,2013-08-18 17:10:00,
2013-08-18 10:15:00,76.7,40.2,29.78,NE,47,0.0,1.0,27,0.00,,---,0.00,VWS V13.01,2013-08-18 17:15:00,
2013-08-18 10:20:00,77.4,38.9,29.78,North,0,2.0,2.0,25,0.00,,---,0.00,VWS V13.01,2013-08-18 17:20:00,
2013-08-18 10:25:00,77.7,39.1,29.78,NNE,18,1.0,5.0,25,0.00,,---,0.00,VWS V13.01,2013-08-18 17:25:00,
2013-08-18 10:30:00,78.8,40.0,29.77,North,0,1.0,5.0,25,0.00,,---,0.00,VWS V13.01,2013-08-18 17:30:00,
2013-08-18 10:35:00,78.5,39.8,29.77,North,1,0.0,1.0,25,0.00,,---,0.00,VWS V13.01,2013-08-18 17:35:00,
2013-08-18 10:40:00,79.6,40.7,29.77,NNE,16,0.0,1.0,25,0.00,,---,0.00,VWS V13.01,2013-08-18 17:40:00,
2013-08-18 10:45:00,80.1,41.1,29.77,North,8,3.0,3.0,25,0.00,,---,0.00,VWS V13.01,2013-08-18 17:45:00,
2013-08-18 10:50:00,80.5,39.3,29.76,North,11,0.0,3.0,23,0.00,,---,0.00,VWS V13.01,2013-08-18 17:50:00,
2013-08-18 10:55:00,80.9,38.5,29.76,NNE,32,0.0,1.0,22,0.00,,---,0.00,VWS V13.01,2013-08-18 17:55:00,
2013-08-18 11:00:00,81.6,37.9,29.76,ENE,66,0.0,8.0,21,0.00,,---,0.00,VWS V13.01,2013-08-18 18:00:00,
2013-08-18 11:05:00,81.8,36.8,29.76,South,182,0.0,2.0,20,0.00,,---,0.00,VWS V13.01,2013-08-18 18:05:00,
2013-08-18 11:10:00,82.0,37.0,29.76,NNE,21,1.0,5.0,20,0.00,,---,0.00,VWS V13.01,2013-08-18 18:10:00,
2013-08-18 11:15:00,82.4,37.3,29.76,East,82,0.0,3.0,20,0.00,,---,0.00,VWS V13.01,2013-08-18 18:15:00,
2013-08-18 11:20:00,82.8,36.4,29.76,East,83,0.0,3.0,19,0.00,,---,0.00,VWS V13.01,2013-08-18 18:20:00,
2013-08-18 11:25:00,83.2,35.3,29.76,North,6,0.0,6.0,18,0.00,,---,0.00,VWS V13.01,2013-08-18 18:25:00,
2013-08-18 11:30:00,83.4,34.1,29.76,North,1,3.0,7.0,17,0.00,,---,0.00,VWS V13.01,2013-08-18 18:30:00,
2013-08-18 11:35:00,84.1,34.6,29.76,NNE,23,0.0,5.0,17,0.00,,---,0.00,VWS V13.01,2013-08-18 18:35:00,
2013-08-18 11:40:00,84.9,32.2,29.76,NE,47,1.0,11.0,15,0.00,,---,0.00,VWS V13.01,2013-08-18 18:40:00,
2013-08-18 11:45:00,85.1,32.3,29.76,NNE,25,7.0,7.0,15,0.00,,---,0.00,VWS V13.01,2013-08-18 18:45:00,
2013-08-18 11:50:00,85.7,35.9,29.75,North,1,9.0,10.0,17,0.00,,---,0.00,VWS V13.01,2013-08-18 18:50:00,
2013-08-18 11:55:00,85.9,32.9,29.75,North,0,2.0,6.0,15,0.00,,---,0.00,VWS V13.01,2013-08-18 18:55:00,
2013-08-18 12:00:00,86.5,33.4,29.75,ENE,73,0.0,7.0,15,0.00,,---,0.00,VWS V13.01,2013-08-18 19:00:00,
2013-08-18 12:05:00,87.0,35.4,29.74,NE,54,1.0,7.0,16,0.00,,---,0.00,VWS V13.01,2013-08-18 19:05:00,
2013-08-18 12:10:00,87.6,34.3,29.74,NNE,25,5.0,12.0,15,0.00,,---,0.00,VWS V13.01,2013-08-18 19:10:00,
2013-08-18 12:15:00,88.2,36.4,29.74,North,6,2.0,3.0,16,0.00,,---,0.00,VWS V13.01,2013-08-18 19:15:00,
2013-08-18 12:20:00,88.2,36.4,29.73,ENE,76,1.0,5.0,16,0.00,,---,0.00,VWS V13.01,2013-08-18 19:20:00,
2013-08-18 12:25:00,88.8,35.2,29.73,North,0,4.0,14.0,15,0.00,,---,0.00,VWS V13.01,2013-08-18 19:25:00,
2013-08-18 12:30:00,88.8,35.2,29.73,ENE,59,0.0,14.0,15,0.00,,---,0.00,VWS V13.01,2013-08-18 19:30:00,
2013-08-18 12:35:00,89.0,35.4,29.72,North,0,3.0,8.0,15,0.00,,---,0.00,VWS V13.01,2013-08-18 19:35:00,
2013-08-18 12:40:00,89.0,35.4,29.72,NNW,337,0.0,8.0,15,0.00,,---,0.00,VWS V13.01,2013-08-18 19:40:00,
2013-08-18 12:45:00,89.3,37.3,29.72,North,3,5.0,6.0,16,0.00,,---,0.00,VWS V13.01,2013-08-18 19:45:00,
2013-08-18 12:50:00,89.7,36.0,29.71,North,0,0.0,6.0,15,0.00,,---,0.00,VWS V13.01,2013-08-18 19:50:00,
2013-08-18 12:55:00,90.3,36.4,29.71,NE,52,0.0,6.0,15,0.00,,---,0.00,VWS V13.01,2013-08-18 19:55:00,
2013-08-18 13:00:00,90.5,34.8,29.71,NNE,25,3.0,6.0,14,0.00,,---,0.00,VWS V13.01,2013-08-18 20:00:00,
2013-08-18 13:05:00,90.5,36.6,29.70,NNE,30,0.0,6.0,15,0.00,,---,0.00,VWS V13.01,2013-08-18 20:05:00,
2013-08-18 13:10:00,90.3,36.4,29.70,North,353,0.0,10.0,15,0.00,,---,0.00,VWS V13.01,2013-08-18 20:10:00,
2013-08-18 13:15:00,90.7,35.0,29.70,North,349,1.0,6.0,14,0.00,,---,0.00,VWS V13.01,2013-08-18 20:15:00,
2013-08-18 13:20:00,91.0,35.2,29.71,North,356,3.0,7.0,14,0.00,,---,0.00,VWS V13.01,2013-08-18 20:20:00,
2013-08-18 13:25:00,91.6,37.5,29.71,ENE,73,0.0,3.0,15,0.00,,---,0.00,VWS V13.01,2013-08-18 20:25:00,
2013-08-18 13:30:00,92.3,34.4,29.71,SE,143,0.0,3.0,13,0.00,,---,0.00,VWS V13.01,2013-08-18 20:30:00,
2013-08-18 13:35:00,92.5,34.6,29.70,ENE,72,2.0,6.0,13,0.00,,---,0.00,VWS V13.01,2013-08-18 20:35:00,
2013-08-18 13:40:00,92.1,36.1,29.70,East,80,3.0,6.0,14,0.00,,---,0.00,VWS V13.01,2013-08-18 20:40:00,
2013-08-18 13:45:00,91.8,34.0,29.70,South,182,1.0,5.0,13,0.00,,---,0.00,VWS V13.01,2013-08-18 20:45:00,
2013-08-18 13:50:00,91.8,34.0,29.70,SW,219,2.0,5.0,13,0.00,,---,0.00,VWS V13.01,2013-08-18 20:50:00,
2013-08-18 13:55:00,92.3,34.4,29.70,SW,215,0.0,1.0,13,0.00,,---,0.00,VWS V13.01,2013-08-18 20:55:00,
2013-08-18 14:00:00,93.2,35.1,29.70,NE,48,1.0,3.0,13,0.00,,---,0.00,VWS V13.01,2013-08-18 21:00:00,
2013-08-18 14:05:00,92.7,34.7,29.69,SE,128,0.0,2.0,13,0.00,,---,0.00,VWS V13.01,2013-08-18 21:05:00,
2013-08-18 14:10:00,94.5,34.1,29.69,SW,234,0.0,3.0,12,0.00,,---,0.00,VWS V13.01,2013-08-18 21:10:00,
2013-08-18 14:15:00,94.3,34.0,29.69,SSW,210,0.0,3.0,12,0.00,,---,0.00,VWS V13.01,2013-08-18 21:15:00,
2013-08-18 14:20:00,93.4,33.3,29.69,SSE,165,0.0,3.0,12,0.00,,---,0.00,VWS V13.01,2013-08-18 21:20:00,
2013-08-18 14:25:00,94.3,36.0,29.69,North,1,0.0,1.0,13,0.00,,---,0.00,VWS V13.01,2013-08-18 21:25:00,
2013-08-18 14:30:00,94.5,36.1,29.69,North,0,1.0,4.0,13,0.00,,---,0.00,VWS V13.01,2013-08-18 21:30:00,
2013-08-18 14:35:00,94.3,34.0,29.67,ESE,119,0.0,1.0,12,0.00,,---,0.00,VWS V13.01,2013-08-18 21:35:00,
2013-08-18 14:40:00,94.5,34.1,29.67,South,178,0.0,2.0,12,0.00,,---,0.00,VWS V13.01,2013-08-18 21:40:00,
2013-08-18 14:45:00,94.5,34.1,29.67,NW,322,2.0,8.0,12,0.00,,---,0.00,VWS V13.01,2013-08-18 21:45:00,
2013-08-18 14:50:00,94.7,34.3,29.67,NNE,16,6.0,8.0,12,0.00,,---,0.00,VWS V13.01,2013-08-18 21:50:00,
2013-08-18 14:55:00,93.6,35.4,29.67,NE,48,3.0,5.0,13,0.00,,---,0.00,VWS V13.01,2013-08-18 21:55:00,
2013-08-18 15:00:00,92.7,32.7,29.67,SSE,165,0.0,5.0,12,0.00,,---,0.00,VWS V13.01,2013-08-18 22:00:00,
2013-08-18 15:05:00,93.2,35.1,29.67,SSW,195,0.0,7.0,13,0.00,,---,0.00,VWS V13.01,2013-08-18 22:05:00,
2013-08-18 15:10:00,93.4,35.3,29.67,South,185,0.0,7.0,13,0.00,,---,0.00,VWS V13.01,2013-08-18 22:10:00,
2013-08-18 15:15:00,94.3,34.0,29.67,North,349,0.0,5.0,12,0.00,,---,0.00,VWS V13.01,2013-08-18 22:15:00,
2013-08-18 15:20:00,94.5,34.1,29.67,SW,220,0.0,7.0,12,0.00,,---,0.00,VWS V13.01,2013-08-18 22:20:00,
2013-08-18 15:25:00,94.0,33.7,29.67,North,0,1.0,2.0,12,0.00,,---,0.00,VWS V13.01,2013-08-18 22:25:00,
2013-08-18 15:30:00,94.0,35.7,29.67,NNE,28,0.0,4.0,13,0.00,,---,0.00,VWS V13.01,2013-08-18 22:30:00,
2013-08-18 15:35:00,94.0,33.7,29.66,SW,229,2.0,3.0,12,0.00,,---,0.00,VWS V13.01,2013-08-18 22:35:00,
2013-08-18 15:40:00,94.7,34.3,29.66,NNW,347,1.0,5.0,12,0.00,,---,0.00,VWS V13.01,2013-08-18 22:40:00,
2013-08-18 15:45:00,93.8,33.6,29.66,NNW,335,0.0,5.0,12,0.00,,---,0.00,VWS V13.01,2013-08-18 22:45:00,
2013-08-18 15:50:00,94.0,33.7,29.65,North,0,3.0,12.0,12,0.00,,---,0.00,VWS V13.01,2013-08-18 22:50:00,
2013-08-18 15:55:00,94.0,33.7,29.65,SW,224,0.0,8.0,12,0.00,,---,0.00,VWS V13.01,2013-08-18 22:55:00,
2013-08-18 16:00:00,93.8,33.6,29.65,North,0,3.0,8.0,12,0.00,,---,0.00,VWS V13.01,2013-08-18 23:00:00,
2013-08-18 16:05:00,92.5,32.6,29.65,North,356,0.0,3.0,12,0.00,,---,0.00,VWS V13.01,2013-08-18 23:05:00,
2013-08-18 16:10:00,91.6,33.9,29.65,North,359,0.0,3.0,13,0.00,,---,0.00,VWS V13.01,2013-08-18 23:10:00,
2013-08-18 16:15:00,91.4,33.7,29.65,NNW,347,0.0,0.0,13,0.00,,---,0.00,VWS V13.01,2013-08-18 23:15:00,
2013-08-18 16:20:00,91.2,33.5,29.66,NNW,346,0.0,1.0,13,0.00,,---,0.00,VWS V13.01,2013-08-18 23:20:00,
2013-08-18 16:25:00,90.7,33.2,29.66,WNW,298,0.0,3.0,13,0.00,,---,0.00,VWS V13.01,2013-08-18 23:25:00,
2013-08-18 16:30:00,90.5,33.0,29.66,SW,226,0.0,3.0,13,0.00,,---,0.00,VWS V13.01,2013-08-18 23:30:00,
2013-08-18 16:35:00,90.3,34.7,29.68,South,186,3.0,3.0,14,0.00,,---,0.00,VWS V13.01,2013-08-18 23:35:00,
2013-08-18 16:40:00,89.9,36.1,29.68,SSW,198,0.0,3.0,15,0.00,,---,0.00,VWS V13.01,2013-08-18 23:40:00,
2013-08-18 16:45:00,89.7,36.0,29.68,SSE,168,0.0,2.0,15,0.00,,---,0.00,VWS V13.01,2013-08-18 23:45:00,
2013-08-18 16:50:00,89.3,35.6,29.68,South,181,0.0,6.0,15,0.00,,---,0.00,VWS V13.01,2013-08-18 23:50:00,
2013-08-18 16:55:00,89.0,35.4,29.68,South,175,1.0,2.0,15,0.00,,---,0.00,VWS V13.01,2013-08-18 23:55:00,
2013-08-18 17:00:00,88.6,36.7,29.68,SSE,160,1.0,8.0,16,0.00,,---,0.00,VWS V13.01,2013-08-19 00:00:00,
2013-08-18 17:05:00,88.2,36.4,29.69,SSW,199,3.0,5.0,16,0.00,,---,0.00,VWS V13.01,2013-08-19 00:05:00,
2013-08-18 17:10:00,87.4,37.3,29.69,SSW,209,2.0,5.0,17,0.00,,---,0.00,VWS V13.01,2013-08-19 00:10:00,
2013-08-18 17:15:00,86.7,38.2,29.69,South,184,2.0,6.0,18,0.00,,---,0.00,VWS V13.01,2013-08-19 00:15:00,
2013-08-18 17:20:00,86.1,37.7,29.71,South,185,1.0,6.0,18,0.00,,---,0.00,VWS V13.01,2013-08-19 00:20:00,
2013-08-18 17:25:00,86.3,37.8,29.71,South,181,1.0,5.0,18,0.00,,---,0.00,VWS V13.01,2013-08-19 00:25:00,
2013-08-18 17:30:00,86.1,37.7,29.71,SSW,213,2.0,6.0,18,0.00,,---,0.00,VWS V13.01,2013-08-19 00:30:00,
2013-08-18 17:35:00,85.7,38.7,29.73,SSE,157,3.0,5.0,19,0.00,,---,0.00,VWS V13.01,2013-08-19 00:35:00,
2013-08-18 17:40:00,85.3,38.4,29.73,SSW,212,0.0,5.0,19,0.00,,---,0.00,VWS V13.01,2013-08-19 00:40:00,
2013-08-18 17:44:00,85.1,38.2,29.73,SSW,212,0.0,1.0,19,0.00,,---,0.00,VWS V13.01,2013-08-19 00:44:00,
2013-08-18 17:49:00,84.9,38.1,29.73,SSE,168,0.0,3.0,19,0.00,,---,0.00,VWS V13.01,2013-08-19 00:49:00,
2013-08-18 17:54:00,84.7,37.9,29.73,SSW,210,0.0,3.0,19,0.00,,---,0.00,VWS V13.01,2013-08-19 00:54:00,
2013-08-18 17:59:00,84.7,39.2,29.73,SSW,209,0.0,3.0,20,0.00,,---,0.00,VWS V13.01,2013-08-19 00:59:00,
2013-08-18 18:04:00,84.5,40.3,29.74,South,191,0.0,1.0,21,0.00,,---,0.00,VWS V13.01,2013-08-19 01:04:00,
2013-08-18 18:09:00,83.4,39.4,29.74,SSW,199,0.0,2.0,21,0.00,,---,0.00,VWS V13.01,2013-08-19 01:09:00,
2013-08-18 18:14:00,83.4,38.2,29.74,SSW,200,2.0,7.0,20,0.00,,---,0.00,VWS V13.01,2013-08-19 01:14:00,
2013-08-18 18:19:00,83.2,38.0,29.76,SSW,200,0.0,7.0,20,0.00,,---,0.00,VWS V13.01,2013-08-19 01:19:00,
2013-08-18 18:24:00,83.0,37.8,29.76,SSW,212,0.0,3.0,20,0.00,,---,0.00,VWS V13.01,2013-08-19 01:24:00,
2013-08-18 18:29:00,82.8,37.7,29.76,SW,215,0.0,4.0,20,0.00,,---,0.00,VWS V13.01,2013-08-19 01:29:00,
2013-08-18 18:34:00,82.8,37.7,29.77,SSW,206,0.0,2.0,20,0.00,,---,0.00,VWS V13.01,2013-08-19 01:34:00,
2013-08-18 18:39:00,82.8,37.7,29.77,SSE,161,0.0,3.0,20,0.00,,---,0.00,VWS V13.01,2013-08-19 01:39:00,
2013-08-18 18:44:00,82.6,38.8,29.77,SSE,161,0.0,1.0,21,0.00,,---,0.00,VWS V13.01,2013-08-19 01:44:00,
2013-08-18 18:49:00,82.2,39.6,29.77,SSE,161,0.0,1.0,22,0.00,,---,0.00,VWS V13.01,2013-08-19 01:49:00,
2013-08-18 18:54:00,82.0,38.2,29.77,SE,124,0.0,1.0,21,0.00,,---,0.00,VWS V13.01,2013-08-19 01:54:00,
2013-08-18 18:59:00,81.8,38.1,29.77,SE,124,0.0,1.0,21,0.00,,---,0.00,VWS V13.01,2013-08-19 01:59:00,
2013-08-18 19:04:00,81.6,37.9,29.77,SSE,147,0.0,1.0,21,0.00,,---,0.00,VWS V13.01,2013-08-19 02:04:00,
2013-08-18 19:09:00,81.6,37.9,29.77,SSW,210,0.0,1.0,21,0.00,,---,0.00,VWS V13.01,2013-08-19 02:09:00,
2013-08-18 19:14:00,81.4,37.8,29.77,SSW,210,0.0,0.0,21,0.00,,---,0.00,VWS V13.01,2013-08-19 02:14:00,
2013-08-18 19:20:00,81.1,38.7,29.76,SSW,210,0.0,0.0,22,0.00,,---,0.00,VWS V13.01,2013-08-19 02:20:00,
2013-08-18 19:25:00,80.7,38.4,29.76,SSW,210,0.0,0.0,22,0.00,,---,0.00,VWS V13.01,2013-08-19 02:25:00,
2013-08-18 19:30:00,80.3,38.0,29.76,SSW,210,0.0,0.0,22,0.00,,---,0.00,VWS V13.01,2013-08-19 02:30:00,
2013-08-18 19:35:00,79.8,37.6,29.77,SSW,210,0.0,0.0,22,0.00,,---,0.00,VWS V13.01,2013-08-19 02:35:00,
2013-08-18 19:40:00,79.0,39.2,29.77,SSW,210,0.0,0.0,24,0.00,,---,0.00,VWS V13.01,2013-08-19 02:40:00,
2013-08-18 19:45:00,78.5,38.7,29.77,SSW,210,0.0,0.0,24,0.00,,---,0.00,VWS V13.01,2013-08-19 02:45:00,
2013-08-18 19:50:00,77.7,38.1,29.77,SSW,210,0.0,0.0,24,0.00,,---,0.00,VWS V13.01,2013-08-19 02:50:00,
2013-08-18 19:55:00,77.4,40.8,29.77,SSW,210,0.0,0.0,27,0.00,,---,0.00,VWS V13.01,2013-08-19 02:55:00,
2013-08-18 20:00:00,76.7,39.3,29.77,SSW,210,0.0,0.0,26,0.00,,---,0.00,VWS V13.01,2013-08-19 03:00:00,
2013-08-18 20:05:00,76.1,37.8,29.79,SSW,210,0.0,0.0,25,0.00,,---,0.00,VWS V13.01,2013-08-19 03:05:00,
2013-08-18 20:10:00,75.4,38.2,29.79,SSW,210,0.0,0.0,26,0.00,,---,0.00,VWS V13.01,2013-08-19 03:10:00,
2013-08-18 20:15:00,74.9,37.7,29.79,SSW,210,0.0,0.0,26,0.00,,---,0.00,VWS V13.01,2013-08-19 03:15:00,
2013-08-18 20:20:00,74.2,38.1,29.76,SSW,210,0.0,0.0,27,0.00,,---,0.00,VWS V13.01,2013-08-19 03:20:00,
2013-08-18 20:25:00,73.7,38.6,29.76,SSW,210,0.0,0.0,28,0.00,,---,0.00,VWS V13.01,2013-08-19 03:25:00,
2013-08-18 20:30:00,73.2,38.2,29.76,SSW,210,0.0,0.0,28,0.00,,---,0.00,VWS V13.01,2013-08-19 03:30:00,
2013-08-18 20:35:00,72.8,37.8,29.78,SSW,210,0.0,1.0,28,0.00,,---,0.00,VWS V13.01,2013-08-19 03:35:00,
2013-08-18 20:40:00,72.8,37.8,29.78,SSW,210,0.0,1.0,28,0.00,,---,0.00,VWS V13.01,2013-08-19 03:40:00,
2013-08-18 20:45:00,72.7,38.6,29.78,SSW,210,1.0,2.0,29,0.00,,---,0.00,VWS V13.01,2013-08-19 03:45:00,
2013-08-18 20:50:00,72.1,38.1,29.78,SSW,210,0.0,2.0,29,0.00,,---,0.00,VWS V13.01,2013-08-19 03:50:00,
2013-08-18 20:55:00,71.6,38.6,29.78,SSW,210,0.0,0.0,30,0.00,,---,0.00,VWS V13.01,2013-08-19 03:55:00,
2013-08-18 21:00:00,71.1,39.0,29.78,SSW,210,0.0,0.0,31,0.00,,---,0.00,VWS V13.01,2013-08-19 04:00:00,
2013-08-18 21:01:00,71.1,39.0,29.79,SSW,210,0.0,0.0,31,0.00,,---,0.00,VWS V13.01,2013-08-19 04:01:00,
2013-08-18 21:06:00,70.6,39.3,29.79,SSW,210,0.0,0.0,32,0.00,,---,0.00,VWS V13.01,2013-08-19 04:06:00,
2013-08-18 21:11:00,70.1,38.9,29.79,SSW,210,0.0,0.0,32,0.00,,---,0.00,VWS V13.01,2013-08-19 04:11:00,
2013-08-18 21:16:00,69.9,40.3,29.75,SSW,210,0.0,0.0,34,0.00,,---,0.00,VWS V13.01,2013-08-19 04:16:00,
2013-08-18 21:21:00,69.6,40.8,29.75,SSW,210,0.0,0.0,35,0.00,,---,0.00,VWS V13.01,2013-08-19 04:21:00,
2013-08-18 21:26:00,69.3,40.5,29.75,SSW,210,0.0,0.0,35,0.00,,---,0.00,VWS V13.01,2013-08-19 04:26:00,
2013-08-18 21:31:00,68.9,40.9,29.75,SSW,210,0.0,0.0,36,0.00,,---,0.00,VWS V13.01,2013-08-19 04:31:00,
2013-08-18 21:36:00,68.6,41.3,29.75,SSW,210,0.0,0.0,37,0.00,,---,0.00,VWS V13.01,2013-08-19 04:36:00,
2013-08-18 21:41:00,68.3,41.0,29.75,SSW,210,0.0,0.0,37,0.00,,---,0.00,VWS V13.01,2013-08-19 04:41:00,
2013-08-18 21:46:00,67.9,40.7,29.76,SSW,210,0.0,0.0,37,0.00,,---,0.00,VWS V13.01,2013-08-19 04:46:00,
2013-08-18 21:51:00,67.8,40.6,29.76,SSW,210,0.0,0.0,37,0.00,,---,0.00,VWS V13.01,2013-08-19 04:51:00,
2013-08-18 21:56:00,67.6,41.1,29.76,SSW,210,0.0,0.0,38,0.00,,---,0.00,VWS V13.01,2013-08-19 04:56:00,
2013-08-18 22:01:00,67.3,40.8,29.76,SSW,210,0.0,0.0,38,0.00,,---,0.00,VWS V13.01,2013-08-19 05:01:00,
2013-08-18 22:06:00,66.9,41.2,29.76,SSW,210,0.0,0.0,39,0.00,,---,0.00,VWS V13.01,2013-08-19 05:06:00,
2013-08-18 22:11:00,66.9,40.5,29.76,SSW,210,0.0,0.0,38,0.00,,---,0.00,VWS V13.01,2013-08-19 05:11:00,
2013-08-18 22:16:00,66.8,41.1,29.73,SSW,210,0.0,0.0,39,0.00,,---,0.00,VWS V13.01,2013-08-19 05:16:00,
2013-08-18 22:21:00,66.4,39.4,29.73,SSW,210,0.0,0.0,37,0.00,,---,0.00,VWS V13.01,2013-08-19 05:21:00,
2013-08-18 22:26:00,66.3,40.0,29.73,SSW,210,0.0,0.0,38,0.00,,---,0.00,VWS V13.01,2013-08-19 05:26:00,
2013-08-18 22:31:00,65.8,40.2,29.73,SSW,210,0.0,0.0,39,0.00,,---,0.00,VWS V13.01,2013-08-19 05:31:00,
2013-08-18 22:36:00,65.6,40.7,29.73,SSW,210,0.0,0.0,40,0.00,,---,0.00,VWS V13.01,2013-08-19 05:36:00,
2013-08-18 22:41:00,65.3,40.4,29.73,SSW,210,0.0,0.0,40,0.00,,---,0.00,VWS V13.01,2013-08-19 05:41:00,
2013-08-18 22:46:00,65.0,40.1,29.74,SSW,210,0.0,0.0,40,0.00,,---,0.00,VWS V13.01,2013-08-19 05:46:00,
2013-08-18 22:51:00,64.8,39.9,29.74,SSW,210,0.0,0.0,40,0.00,,---,0.00,VWS V13.01,2013-08-19 05:51:00,
2013-08-18 22:56:00,64.5,40.3,29.74,SSW,210,0.0,0.0,41,0.00,,---,0.00,VWS V13.01,2013-08-19 05:56:00,
2013-08-18 23:01:00,64.3,40.1,29.74,SSW,210,0.0,0.0,41,0.00,,---,0.00,VWS V13.01,2013-08-19 06:01:00,
2013-08-18 23:06:00,64.2,40.0,29.74,SSW,210,0.0,0.0,41,0.00,,---,0.00,VWS V13.01,2013-08-19 06:06:00,
2013-08-18 23:11:00,64.3,40.1,29.74,SSW,210,0.0,0.0,41,0.00,,---,0.00,VWS V13.01,2013-08-19 06:11:00,
2013-08-18 23:16:00,64.3,39.5,29.73,SSW,210,0.0,0.0,40,0.00,,---,0.00,VWS V13.01,2013-08-19 06:16:00,
2013-08-18 23:21:00,64.3,39.5,29.73,SSW,210,0.0,0.0,40,0.00,,---,0.00,VWS V13.01,2013-08-19 06:21:00,
2013-08-18 23:26:00,64.3,39.5,29.73,SSW,210,0.0,0.0,40,0.00,,---,0.00,VWS V13.01,2013-08-19 06:26:00,
2013-08-18 23:31:00,64.3,39.5,29.73,SSW,210,0.0,0.0,40,0.00,,---,0.00,VWS V13.01,2013-08-19 06:31:00,
2013-08-18 23:36:00,64.3,39.5,29.73,SSW,210,0.0,0.0,40,0.00,,---,0.00,VWS V13.01,2013-08-19 06:36:00,
2013-08-18 23:41:00,64.2,40.0,29.73,SW,232,0.0,1.0,41,0.00,,---,0.00,VWS V13.01,2013-08-19 06:41:00,
2013-08-18 23:46:00,64.0,39.8,29.72,SW,232,0.0,0.0,41,0.00,,---,0.00,VWS V13.01,2013-08-19 06:46:00,
2013-08-18 23:51:00,63.9,40.4,29.72,SW,232,0.0,0.0,42,0.00,,---,0.00,VWS V13.01,2013-08-19 06:51:00,
2013-08-18 23:56:00,63.7,40.8,29.72,SW,232,0.0,0.0,43,0.00,,---,0.00,VWS V13.01,2013-08-19 06:56:00,